sensor_id;sensor_type;location;lat;lon;timestamp;temperature;humidity
13328;DHT22;6733;51.044;3.746;2022-10-17T05:59:40;16.50;99.90
13328;DHT22;6733;51.044;3.746;2022-10-17T06:02:06;16.60;99.90
13328;DHT22;6733;51.044;3.746;2022-10-17T06:04:43;16.60;99.90
13328;DHT22;6733;51.044;3.746;2022-10-17T06:07:14;16.60;99.90
13328;DHT22;6733;51.044;3.746;2022-10-17T06:09:41;16.60;99.90
13328;DHT22;6733;51.044;3.746;2022-10-17T06:12:07;16.60;99.90
13328;DHT22;6733;51.044;3.746;2022-10-17T06:14:34;16.70;99.90
13328;DHT22;6733;51.044;3.746;2022-10-17T06:17:00;16.70;99.90
13328;DHT22;6733;51.044;3.746;2022-10-17T06:19:26;16.80;99.90
13328;DHT22;6733;51.044;3.746;2022-10-17T06:21:52;16.90;99.90
13328;DHT22;6733;51.044;3.746;2022-10-17T06:24:18;16.90;99.90
13328;DHT22;6733;51.044;3.746;2022-10-17T06:26:45;17.00;99.90
13328;DHT22;6733;51.044;3.746;2022-10-17T06:29:12;17.10;99.90
13328;DHT22;6733;51.044;3.746;2022-10-17T06:31:38;17.10;99.90
13328;DHT22;6733;51.044;3.746;2022-10-17T06:34:04;17.20;99.90
13328;DHT22;6733;51.044;3.746;2022-10-17T06:36:31;17.30;99.90
13328;DHT22;6733;51.044;3.746;2022-10-17T06:38:57;17.30;99.90
13328;DHT22;6733;51.044;3.746;2022-10-17T06:41:23;17.40;99.90
13328;DHT22;6733;51.044;3.746;2022-10-17T06:43:50;17.30;99.90
13328;DHT22;6733;51.044;3.746;2022-10-17T06:46:17;17.30;99.90
13328;DHT22;6733;51.044;3.746;2022-10-17T06:48:44;17.30;99.90
13328;DHT22;6733;51.044;3.746;2022-10-17T06:51:10;17.30;99.90
13328;DHT22;6733;51.044;3.746;2022-10-17T06:53:39;17.30;99.90
13328;DHT22;6733;51.044;3.746;2022-10-17T06:56:07;17.30;99.90
13328;DHT22;6733;51.044;3.746;2022-10-17T06:58:36;17.30;99.90
13328;DHT22;6733;51.044;3.746;2022-10-17T07:01:09;17.30;99.90
13328;DHT22;6733;51.044;3.746;2022-10-17T07:03:48;17.20;99.90
13328;DHT22;6733;51.044;3.746;2022-10-17T07:06:19;17.20;99.90
13328;DHT22;6733;51.044;3.746;2022-10-17T07:08:45;17.10;99.90
13328;DHT22;6733;51.044;3.746;2022-10-17T07:11:14;17.10;99.90
13328;DHT22;6733;51.044;3.746;2022-10-17T07:13:41;17.10;99.90
13328;DHT22;6733;51.044;3.746;2022-10-17T07:16:08;17.00;99.90
13328;DHT22;6733;51.044;3.746;2022-10-17T07:18:34;17.00;99.90
13328;DHT22;6733;51.044;3.746;2022-10-17T07:21:00;17.00;99.90
13328;DHT22;6733;51.044;3.746;2022-10-17T07:23:28;17.00;99.90
13328;DHT22;6733;51.044;3.746;2022-10-17T07:26:09;16.90;99.90
13328;DHT22;6733;51.044;3.746;2022-10-17T07:28:46;16.90;99.90
13328;DHT22;6733;51.044;3.746;2022-10-17T07:31:17;16.90;99.90
13328;DHT22;6733;51.044;3.746;2022-10-17T07:33:44;16.80;99.90
13328;DHT22;6733;51.044;3.746;2022-10-17T07:36:11;16.80;99.90
13328;DHT22;6733;51.044;3.746;2022-10-17T07:38:38;16.80;99.90
13328;DHT22;6733;51.044;3.746;2022-10-17T07:41:06;16.80;99.90
13328;DHT22;6733;51.044;3.746;2022-10-17T07:43:33;16.80;99.90
13328;DHT22;6733;51.044;3.746;2022-10-17T07:46:04;16.80;99.90
13328;DHT22;6733;51.044;3.746;2022-10-17T07:48:31;16.80;99.90
13328;DHT22;6733;51.044;3.746;2022-10-17T07:50:58;16.90;99.90
13328;DHT22;6733;51.044;3.746;2022-10-17T07:53:26;16.80;99.90
13328;DHT22;6733;51.044;3.746;2022-10-17T07:55:52;16.80;99.90
13328;DHT22;6733;51.044;3.746;2022-10-17T07:58:18;16.80;99.90
13328;DHT22;6733;51.044;3.746;2022-10-17T08:00:44;16.80;99.90
13328;DHT22;6733;51.044;3.746;2022-10-17T08:03:13;16.70;99.90
13328;DHT22;6733;51.044;3.746;2022-10-17T08:05:39;16.70;99.90
13328;DHT22;6733;51.044;3.746;2022-10-17T08:08:05;16.70;99.90
13328;DHT22;6733;51.044;3.746;2022-10-17T08:10:32;16.80;99.90
13328;DHT22;6733;51.044;3.746;2022-10-17T08:12:58;16.70;99.90
13328;DHT22;6733;51.044;3.746;2022-10-17T08:15:25;16.70;99.90
13328;DHT22;6733;51.044;3.746;2022-10-17T08:17:51;16.80;99.90
13328;DHT22;6733;51.044;3.746;2022-10-17T08:20:20;16.70;99.90
13328;DHT22;6733;51.044;3.746;2022-10-17T08:22:53;16.80;99.90
13328;DHT22;6733;51.044;3.746;2022-10-17T08:25:21;16.80;99.90
13328;DHT22;6733;51.044;3.746;2022-10-17T08:27:47;16.80;99.90
13328;DHT22;6733;51.044;3.746;2022-10-17T08:30:14;16.80;99.90
13328;DHT22;6733;51.044;3.746;2022-10-17T08:32:40;16.80;99.90
13328;DHT22;6733;51.044;3.746;2022-10-17T08:35:06;16.80;99.90
13328;DHT22;6733;51.044;3.746;2022-10-17T08:37:33;16.80;99.90
13328;DHT22;6733;51.044;3.746;2022-10-17T08:39:59;16.80;99.90
13328;DHT22;6733;51.044;3.746;2022-10-17T08:45:39;16.90;99.90
13328;DHT22;6733;51.044;3.746;2022-10-17T08:48:15;16.90;99.90
13328;DHT22;6733;51.044;3.746;2022-10-17T08:50:52;16.90;99.90
13328;DHT22;6733;51.044;3.746;2022-10-17T08:53:26;16.90;99.90
13328;DHT22;6733;51.044;3.746;2022-10-17T08:55:54;16.90;99.90
13328;DHT22;6733;51.044;3.746;2022-10-17T08:58:28;16.90;99.90
13328;DHT22;6733;51.044;3.746;2022-10-17T09:12:39;16.90;99.90
13328;DHT22;6733;51.044;3.746;2022-10-17T09:15:33;16.90;99.90
13328;DHT22;6733;51.044;3.746;2022-10-17T09:18:17;16.90;99.90
13328;DHT22;6733;51.044;3.746;2022-10-17T09:23:46;16.90;99.90
13328;DHT22;6733;51.044;3.746;2022-10-17T09:26:15;17.00;99.90
13328;DHT22;6733;51.044;3.746;2022-10-17T09:28:43;17.00;99.90
13328;DHT22;6733;51.044;3.746;2022-10-17T09:31:25;17.00;99.90
13328;DHT22;6733;51.044;3.746;2022-10-17T09:33:56;17.00;99.90
13328;DHT22;6733;51.044;3.746;2022-10-17T09:36:39;17.10;99.90
13328;DHT22;6733;51.044;3.746;2022-10-17T09:39:12;17.10;99.90
13328;DHT22;6733;51.044;3.746;2022-10-17T09:44:20;17.30;99.90
13328;DHT22;6733;51.044;3.746;2022-10-17T09:49:49;17.40;99.90
13328;DHT22;6733;51.044;3.746;2022-10-17T09:52:17;17.50;99.90
13328;DHT22;6733;51.044;3.746;2022-10-17T09:54:56;17.50;99.90
13328;DHT22;6733;51.044;3.746;2022-10-17T09:57:23;17.40;99.90
13328;DHT22;6733;51.044;3.746;2022-10-17T10:00:03;17.50;99.90
13328;DHT22;6733;51.044;3.746;2022-10-17T10:02:30;17.50;99.90
13328;DHT22;6733;51.044;3.746;2022-10-17T10:05:01;17.50;99.90
13328;DHT22;6733;51.044;3.746;2022-10-17T10:07:39;17.50;99.90
13328;DHT22;6733;51.044;3.746;2022-10-17T10:10:07;17.50;99.90
13328;DHT22;6733;51.044;3.746;2022-10-17T10:13:05;17.50;99.90
13328;DHT22;6733;51.044;3.746;2022-10-17T10:15:36;17.40;99.90
13328;DHT22;6733;51.044;3.746;2022-10-17T10:18:25;17.50;99.90
13328;DHT22;6733;51.044;3.746;2022-10-17T10:21:06;17.70;99.90
13328;DHT22;6733;51.044;3.746;2022-10-17T10:23:34;17.80;99.90
13328;DHT22;6733;51.044;3.746;2022-10-17T10:26:33;17.90;99.90
13328;DHT22;6733;51.044;3.746;2022-10-17T10:29:17;18.10;99.90
13328;DHT22;6733;51.044;3.746;2022-10-17T10:31:43;18.20;99.90
13328;DHT22;6733;51.044;3.746;2022-10-17T10:34:27;18.40;99.90
13328;DHT22;6733;51.044;3.746;2022-10-17T10:37:05;18.50;99.90
13328;DHT22;6733;51.044;3.746;2022-10-17T10:42:48;18.60;99.90
13328;DHT22;6733;51.044;3.746;2022-10-17T10:45:28;18.60;99.90
13328;DHT22;6733;51.044;3.746;2022-10-17T10:50:58;18.80;99.90
13328;DHT22;6733;51.044;3.746;2022-10-17T10:53:53;18.90;99.90
13328;DHT22;6733;51.044;3.746;2022-10-17T10:56:29;18.80;99.90
13328;DHT22;6733;51.044;3.746;2022-10-17T10:59:03;19.10;99.90
13328;DHT22;6733;51.044;3.746;2022-10-17T11:01:57;19.30;99.90
13328;DHT22;6733;51.044;3.746;2022-10-17T11:10:06;19.40;99.90
13328;DHT22;6733;51.044;3.746;2022-10-17T11:12:47;19.40;99.90
13328;DHT22;6733;51.044;3.746;2022-10-17T11:23:20;19.30;99.90
13328;DHT22;6733;51.044;3.746;2022-10-17T11:25:53;19.30;99.90
13328;DHT22;6733;51.044;3.746;2022-10-17T11:28:22;19.20;99.90
13328;DHT22;6733;51.044;3.746;2022-10-17T11:36:12;19.20;99.90
13328;DHT22;6733;51.044;3.746;2022-10-17T11:38:49;19.20;99.90
13328;DHT22;6733;51.044;3.746;2022-10-17T11:41:26;19.10;99.90
13328;DHT22;6733;51.044;3.746;2022-10-17T11:43:58;19.00;99.90
13328;DHT22;6733;51.044;3.746;2022-10-17T11:46:26;19.10;99.90
13328;DHT22;6733;51.044;3.746;2022-10-17T11:48:58;18.90;99.90
13328;DHT22;6733;51.044;3.746;2022-10-17T11:51:26;18.90;99.90
13328;DHT22;6733;51.044;3.746;2022-10-17T11:53:56;19.00;99.90
13328;DHT22;6733;51.044;3.746;2022-10-17T11:56:43;18.90;99.90
13328;DHT22;6733;51.044;3.746;2022-10-17T12:01:51;18.80;99.90
13328;DHT22;6733;51.044;3.746;2022-10-17T12:07:29;18.80;99.90
13328;DHT22;6733;51.044;3.746;2022-10-17T12:21:58;19.10;99.90
13328;DHT22;6733;51.044;3.746;2022-10-17T12:24:39;19.20;99.90
13328;DHT22;6733;51.044;3.746;2022-10-17T12:27:41;19.00;99.90
13328;DHT22;6733;51.044;3.746;2022-10-17T12:33:00;19.00;99.90
13328;DHT22;6733;51.044;3.746;2022-10-17T12:35:29;19.00;99.90
13328;DHT22;6733;51.044;3.746;2022-10-17T12:38:01;19.00;99.90
13328;DHT22;6733;51.044;3.746;2022-10-17T12:43:47;19.00;99.90
13328;DHT22;6733;51.044;3.746;2022-10-17T12:46:07;19.10;99.90
13328;DHT22;6733;51.044;3.746;2022-10-17T12:51:15;19.10;99.90
13328;DHT22;6733;51.044;3.746;2022-10-17T12:59:17;19.30;99.90
13328;DHT22;6733;51.044;3.746;2022-10-17T13:01:46;19.30;99.90
13328;DHT22;6733;51.044;3.746;2022-10-17T13:04:13;19.30;99.90
13328;DHT22;6733;51.044;3.746;2022-10-17T13:06:46;19.40;99.90
13328;DHT22;6733;51.044;3.746;2022-10-17T13:09:31;19.40;99.90
13328;DHT22;6733;51.044;3.746;2022-10-17T13:12:03;19.50;99.90
13328;DHT22;6733;51.044;3.746;2022-10-17T13:14:32;19.50;99.90
13328;DHT22;6733;51.044;3.746;2022-10-17T13:17:00;19.50;99.90
13328;DHT22;6733;51.044;3.746;2022-10-17T13:19:44;19.50;99.90
13328;DHT22;6733;51.044;3.746;2022-10-17T13:24:45;19.50;99.90
13328;DHT22;6733;51.044;3.746;2022-10-17T13:29:46;19.60;99.90
13328;DHT22;6733;51.044;3.746;2022-10-17T13:32:12;19.70;99.90
13328;DHT22;6733;51.044;3.746;2022-10-17T13:34:39;19.70;99.90
13328;DHT22;6733;51.044;3.746;2022-10-17T13:37:07;19.70;99.90
13328;DHT22;6733;51.044;3.746;2022-10-17T13:39:44;19.70;99.90
13328;DHT22;6733;51.044;3.746;2022-10-17T13:42:35;19.60;99.90
13328;DHT22;6733;51.044;3.746;2022-10-17T13:45:03;19.50;99.90
13328;DHT22;6733;51.044;3.746;2022-10-17T13:47:36;19.50;99.90
13328;DHT22;6733;51.044;3.746;2022-10-17T13:50:04;19.50;99.90
13328;DHT22;6733;51.044;3.746;2022-10-17T13:52:31;19.40;99.90
13328;DHT22;6733;51.044;3.746;2022-10-17T13:55:11;19.60;99.90
13328;DHT22;6733;51.044;3.746;2022-10-17T13:57:40;19.60;99.90
13328;DHT22;6733;51.044;3.746;2022-10-17T14:00:18;19.60;99.90
13328;DHT22;6733;51.044;3.746;2022-10-17T14:02:45;19.60;99.90
13328;DHT22;6733;51.044;3.746;2022-10-17T14:05:15;19.60;99.90
13328;DHT22;6733;51.044;3.746;2022-10-17T14:07:45;19.60;99.90
13328;DHT22;6733;51.044;3.746;2022-10-17T14:10:41;19.70;99.90
13328;DHT22;6733;51.044;3.746;2022-10-17T14:13:19;19.60;99.90
13328;DHT22;6733;51.044;3.746;2022-10-17T14:15:46;19.70;99.90
13328;DHT22;6733;51.044;3.746;2022-10-17T14:18:23;19.80;99.90
13328;DHT22;6733;51.044;3.746;2022-10-17T14:20:50;19.80;99.90
13328;DHT22;6733;51.044;3.746;2022-10-17T14:23:34;19.90;99.90
13328;DHT22;6733;51.044;3.746;2022-10-17T14:28:44;20.30;99.90
13328;DHT22;6733;51.044;3.746;2022-10-17T14:31:23;20.20;99.90
13328;DHT22;6733;51.044;3.746;2022-10-17T14:33:51;20.00;99.90
13328;DHT22;6733;51.044;3.746;2022-10-17T14:36:19;19.90;99.90
13328;DHT22;6733;51.044;3.746;2022-10-17T14:38:49;19.70;99.90
13328;DHT22;6733;51.044;3.746;2022-10-17T14:41:28;19.60;99.90
13328;DHT22;6733;51.044;3.746;2022-10-17T14:43:59;19.50;99.90
13328;DHT22;6733;51.044;3.746;2022-10-17T14:46:26;19.50;99.90
13328;DHT22;6733;51.044;3.746;2022-10-17T14:49:05;19.50;99.90
13328;DHT22;6733;51.044;3.746;2022-10-17T14:51:32;19.30;99.90
13328;DHT22;6733;51.044;3.746;2022-10-17T14:54:12;19.30;99.90
13328;DHT22;6733;51.044;3.746;2022-10-17T14:56:42;19.30;99.90
13328;DHT22;6733;51.044;3.746;2022-10-17T14:59:13;19.30;99.90
13328;DHT22;6733;51.044;3.746;2022-10-17T15:01:42;19.30;99.90
13328;DHT22;6733;51.044;3.746;2022-10-17T15:04:08;19.30;99.90
13328;DHT22;6733;51.044;3.746;2022-10-17T15:06:35;19.30;99.90
13328;DHT22;6733;51.044;3.746;2022-10-17T15:09:02;19.30;99.90
13328;DHT22;6733;51.044;3.746;2022-10-17T15:11:29;19.30;99.90
13328;DHT22;6733;51.044;3.746;2022-10-17T15:13:55;19.30;99.90
13328;DHT22;6733;51.044;3.746;2022-10-17T15:16:26;19.30;99.90
13328;DHT22;6733;51.044;3.746;2022-10-17T15:18:55;19.20;99.90
13328;DHT22;6733;51.044;3.746;2022-10-17T15:21:23;19.20;99.90
13328;DHT22;6733;51.044;3.746;2022-10-17T15:23:50;19.10;99.90
13328;DHT22;6733;51.044;3.746;2022-10-17T15:26:31;19.10;99.90
13328;DHT22;6733;51.044;3.746;2022-10-17T15:28:58;19.10;99.90
13328;DHT22;6733;51.044;3.746;2022-10-17T15:31:27;19.10;99.90
13328;DHT22;6733;51.044;3.746;2022-10-17T15:33:54;19.10;99.90
13328;DHT22;6733;51.044;3.746;2022-10-17T15:36:27;19.00;99.90
13328;DHT22;6733;51.044;3.746;2022-10-17T15:38:56;19.00;99.90
13328;DHT22;6733;51.044;3.746;2022-10-17T15:41:25;19.00;99.90
13328;DHT22;6733;51.044;3.746;2022-10-17T15:43:51;19.00;99.90
13328;DHT22;6733;51.044;3.746;2022-10-17T15:46:23;19.00;99.90
13328;DHT22;6733;51.044;3.746;2022-10-17T15:48:52;19.00;99.90
13328;DHT22;6733;51.044;3.746;2022-10-17T15:51:19;18.90;99.90
13328;DHT22;6733;51.044;3.746;2022-10-17T15:53:45;18.90;99.90
13328;DHT22;6733;51.044;3.746;2022-10-17T15:56:22;18.90;99.90
13328;DHT22;6733;51.044;3.746;2022-10-17T15:58:48;18.90;99.90
13328;DHT22;6733;51.044;3.746;2022-10-17T16:01:27;18.90;99.90
13328;DHT22;6733;51.044;3.746;2022-10-17T16:03:54;18.90;99.90
13328;DHT22;6733;51.044;3.746;2022-10-17T16:06:21;18.80;99.90
13328;DHT22;6733;51.044;3.746;2022-10-17T16:08:48;18.80;99.90
13328;DHT22;6733;51.044;3.746;2022-10-17T16:11:39;18.70;99.90
13328;DHT22;6733;51.044;3.746;2022-10-17T16:14:08;18.70;99.90
13328;DHT22;6733;51.044;3.746;2022-10-17T16:16:34;18.70;99.90
13328;DHT22;6733;51.044;3.746;2022-10-17T16:19:01;18.60;99.90
13328;DHT22;6733;51.044;3.746;2022-10-17T16:21:30;18.60;99.90
13328;DHT22;6733;51.044;3.746;2022-10-17T16:23:57;18.50;99.90
13328;DHT22;6733;51.044;3.746;2022-10-17T16:26:24;18.60;99.90
13328;DHT22;6733;51.044;3.746;2022-10-17T16:28:50;18.50;99.90
13328;DHT22;6733;51.044;3.746;2022-10-17T16:31:20;18.50;99.90
13328;DHT22;6733;51.044;3.746;2022-10-17T16:33:48;18.40;99.90
13328;DHT22;6733;51.044;3.746;2022-10-17T16:36:14;18.40;99.90
13328;DHT22;6733;51.044;3.746;2022-10-17T16:38:40;18.40;99.90
13328;DHT22;6733;51.044;3.746;2022-10-17T16:41:30;18.30;99.90
13328;DHT22;6733;51.044;3.746;2022-10-17T16:43:59;18.30;99.90
13328;DHT22;6733;51.044;3.746;2022-10-17T16:46:27;18.20;99.90
13328;DHT22;6733;51.044;3.746;2022-10-17T16:48:54;18.20;99.90
13328;DHT22;6733;51.044;3.746;2022-10-17T16:51:21;18.20;99.90
13328;DHT22;6733;51.044;3.746;2022-10-17T16:53:49;18.10;99.90
13328;DHT22;6733;51.044;3.746;2022-10-17T16:56:22;18.10;99.90
13328;DHT22;6733;51.044;3.746;2022-10-17T16:58:50;18.00;99.90
13328;DHT22;6733;51.044;3.746;2022-10-17T17:01:20;18.00;99.90
13328;DHT22;6733;51.044;3.746;2022-10-17T17:03:48;17.90;99.90
13328;DHT22;6733;51.044;3.746;2022-10-17T17:06:20;17.90;99.90
13328;DHT22;6733;51.044;3.746;2022-10-17T17:08:46;17.90;99.90
13328;DHT22;6733;51.044;3.746;2022-10-17T17:11:14;17.80;99.90
13328;DHT22;6733;51.044;3.746;2022-10-17T17:13:41;17.80;99.90
13328;DHT22;6733;51.044;3.746;2022-10-17T17:16:09;17.80;99.90
13328;DHT22;6733;51.044;3.746;2022-10-17T17:18:36;17.70;99.90
13328;DHT22;6733;51.044;3.746;2022-10-17T17:21:04;17.60;99.90
13328;DHT22;6733;51.044;3.746;2022-10-17T17:23:33;17.60;99.90
13328;DHT22;6733;51.044;3.746;2022-10-17T17:26:02;17.60;99.90
13328;DHT22;6733;51.044;3.746;2022-10-17T17:28:29;17.60;99.90
13328;DHT22;6733;51.044;3.746;2022-10-17T17:30:56;17.60;99.90
13328;DHT22;6733;51.044;3.746;2022-10-17T17:33:23;17.60;99.90
13328;DHT22;6733;51.044;3.746;2022-10-17T17:35:55;17.60;99.90
13328;DHT22;6733;51.044;3.746;2022-10-17T17:38:21;17.60;99.90
13328;DHT22;6733;51.044;3.746;2022-10-17T17:40:49;17.60;99.90
13328;DHT22;6733;51.044;3.746;2022-10-17T17:43:16;17.60;99.90
13328;DHT22;6733;51.044;3.746;2022-10-17T17:45:42;17.60;99.90
13328;DHT22;6733;51.044;3.746;2022-10-17T17:48:08;17.60;99.90
13328;DHT22;6733;51.044;3.746;2022-10-17T17:50:36;17.60;99.90
13328;DHT22;6733;51.044;3.746;2022-10-17T17:53:03;17.60;99.90
13328;DHT22;6733;51.044;3.746;2022-10-17T17:55:29;17.60;99.90
13328;DHT22;6733;51.044;3.746;2022-10-17T17:57:56;17.60;99.90
13328;DHT22;6733;51.044;3.746;2022-10-17T18:00:22;17.60;99.90
13328;DHT22;6733;51.044;3.746;2022-10-17T18:02:48;17.60;99.90
13328;DHT22;6733;51.044;3.746;2022-10-17T18:05:15;17.60;99.90
13328;DHT22;6733;51.044;3.746;2022-10-17T18:07:41;17.60;99.90
13328;DHT22;6733;51.044;3.746;2022-10-17T18:10:07;17.60;99.90
13328;DHT22;6733;51.044;3.746;2022-10-17T18:12:34;17.60;99.90
13328;DHT22;6733;51.044;3.746;2022-10-17T18:15:00;17.60;99.90
13328;DHT22;6733;51.044;3.746;2022-10-17T18:17:27;17.60;99.90
13328;DHT22;6733;51.044;3.746;2022-10-17T18:19:53;17.50;99.90
13328;DHT22;6733;51.044;3.746;2022-10-17T18:22:19;17.50;99.90
13328;DHT22;6733;51.044;3.746;2022-10-17T18:24:45;17.50;99.90
13328;DHT22;6733;51.044;3.746;2022-10-17T18:27:12;17.60;99.90
13328;DHT22;6733;51.044;3.746;2022-10-17T18:29:42;17.60;99.90
13328;DHT22;6733;51.044;3.746;2022-10-17T18:32:11;17.50;99.90
13328;DHT22;6733;51.044;3.746;2022-10-17T18:34:37;17.50;99.90
13328;DHT22;6733;51.044;3.746;2022-10-17T18:37:03;17.50;99.90
13328;DHT22;6733;51.044;3.746;2022-10-17T18:39:30;17.50;99.90
13328;DHT22;6733;51.044;3.746;2022-10-17T18:41:56;17.50;99.90
13328;DHT22;6733;51.044;3.746;2022-10-17T18:44:22;17.50;99.90
13328;DHT22;6733;51.044;3.746;2022-10-17T18:46:49;17.40;99.90
13328;DHT22;6733;51.044;3.746;2022-10-17T18:49:17;17.40;99.90
13328;DHT22;6733;51.044;3.746;2022-10-17T18:51:44;17.40;99.90
13328;DHT22;6733;51.044;3.746;2022-10-17T18:54:13;17.40;99.90
13328;DHT22;6733;51.044;3.746;2022-10-17T18:56:39;17.40;99.90
13328;DHT22;6733;51.044;3.746;2022-10-17T18:59:12;17.40;99.90
13328;DHT22;6733;51.044;3.746;2022-10-17T19:01:38;17.40;99.90
13328;DHT22;6733;51.044;3.746;2022-10-17T19:04:04;17.30;99.90
13328;DHT22;6733;51.044;3.746;2022-10-17T19:06:31;17.30;99.90
13328;DHT22;6733;51.044;3.746;2022-10-17T19:08:58;17.30;99.90
13328;DHT22;6733;51.044;3.746;2022-10-17T19:11:26;17.30;99.90
13328;DHT22;6733;51.044;3.746;2022-10-17T19:13:55;17.30;99.90
13328;DHT22;6733;51.044;3.746;2022-10-17T19:16:46;17.30;99.90
13328;DHT22;6733;51.044;3.746;2022-10-17T19:19:18;17.30;99.90
13328;DHT22;6733;51.044;3.746;2022-10-17T19:21:45;17.20;99.90
13328;DHT22;6733;51.044;3.746;2022-10-17T19:24:14;17.20;99.90
13328;DHT22;6733;51.044;3.746;2022-10-17T19:26:46;17.20;99.90
13328;DHT22;6733;51.044;3.746;2022-10-17T19:29:17;17.20;99.90
13328;DHT22;6733;51.044;3.746;2022-10-17T19:31:43;17.20;99.90
13328;DHT22;6733;51.044;3.746;2022-10-17T19:34:11;17.10;99.90
13328;DHT22;6733;51.044;3.746;2022-10-17T19:36:37;17.10;99.90
13328;DHT22;6733;51.044;3.746;2022-10-17T19:39:09;17.20;99.90
13328;DHT22;6733;51.044;3.746;2022-10-17T19:41:38;17.10;99.90
13328;DHT22;6733;51.044;3.746;2022-10-17T19:44:04;17.10;99.90
13328;DHT22;6733;51.044;3.746;2022-10-17T19:46:31;17.10;99.90
13328;DHT22;6733;51.044;3.746;2022-10-17T19:48:59;17.10;99.90
13328;DHT22;6733;51.044;3.746;2022-10-17T19:51:26;17.10;99.90
13328;DHT22;6733;51.044;3.746;2022-10-17T19:53:54;17.00;99.90
13328;DHT22;6733;51.044;3.746;2022-10-17T19:56:23;17.10;99.90
13328;DHT22;6733;51.044;3.746;2022-10-17T19:58:50;17.00;99.90
13328;DHT22;6733;51.044;3.746;2022-10-17T20:01:22;17.00;99.90
13328;DHT22;6733;51.044;3.746;2022-10-17T20:03:48;17.00;99.90
13328;DHT22;6733;51.044;3.746;2022-10-17T20:06:16;16.90;99.90
13328;DHT22;6733;51.044;3.746;2022-10-17T20:08:42;16.90;99.90
13328;DHT22;6733;51.044;3.746;2022-10-17T20:11:11;16.90;99.90
13328;DHT22;6733;51.044;3.746;2022-10-17T20:13:38;16.90;99.90
13328;DHT22;6733;51.044;3.746;2022-10-17T20:16:07;16.90;99.90
13328;DHT22;6733;51.044;3.746;2022-10-17T20:18:34;16.90;99.90
13328;DHT22;6733;51.044;3.746;2022-10-17T20:21:06;16.80;99.90
13328;DHT22;6733;51.044;3.746;2022-10-17T20:23:32;16.80;99.90
13328;DHT22;6733;51.044;3.746;2022-10-17T20:26:01;16.80;99.90
13328;DHT22;6733;51.044;3.746;2022-10-17T20:28:28;16.80;99.90
13328;DHT22;6733;51.044;3.746;2022-10-17T20:30:55;16.80;99.90
13328;DHT22;6733;51.044;3.746;2022-10-17T20:33:22;16.80;99.90
13328;DHT22;6733;51.044;3.746;2022-10-17T20:35:50;16.80;99.90
13328;DHT22;6733;51.044;3.746;2022-10-17T20:38:16;16.70;99.90
13328;DHT22;6733;51.044;3.746;2022-10-17T20:40:43;16.70;99.90
13328;DHT22;6733;51.044;3.746;2022-10-17T20:43:10;16.70;99.90
13328;DHT22;6733;51.044;3.746;2022-10-17T20:45:46;16.70;99.90
13328;DHT22;6733;51.044;3.746;2022-10-17T20:48:13;16.70;99.90
13328;DHT22;6733;51.044;3.746;2022-10-17T20:50:41;16.70;99.90
13328;DHT22;6733;51.044;3.746;2022-10-17T20:53:07;16.70;99.90
13328;DHT22;6733;51.044;3.746;2022-10-17T20:55:39;16.70;99.90
13328;DHT22;6733;51.044;3.746;2022-10-17T20:58:05;16.70;99.90
13328;DHT22;6733;51.044;3.746;2022-10-17T21:00:40;16.70;99.90
13328;DHT22;6733;51.044;3.746;2022-10-17T21:03:07;16.70;99.90
13328;DHT22;6733;51.044;3.746;2022-10-17T21:05:42;16.70;99.90
13328;DHT22;6733;51.044;3.746;2022-10-17T21:08:08;16.70;99.90
13328;DHT22;6733;51.044;3.746;2022-10-17T21:10:34;16.80;99.90
13328;DHT22;6733;51.044;3.746;2022-10-17T21:13:01;16.80;99.90
13328;DHT22;6733;51.044;3.746;2022-10-17T21:15:32;16.80;99.90
13328;DHT22;6733;51.044;3.746;2022-10-17T21:17:58;16.80;99.90
13328;DHT22;6733;51.044;3.746;2022-10-17T21:20:24;16.80;99.90
13328;DHT22;6733;51.044;3.746;2022-10-17T21:22:51;16.80;99.90
13328;DHT22;6733;51.044;3.746;2022-10-17T21:25:18;16.80;99.90
13328;DHT22;6733;51.044;3.746;2022-10-17T21:27:44;16.80;99.90
13328;DHT22;6733;51.044;3.746;2022-10-17T21:30:10;16.80;99.90
13328;DHT22;6733;51.044;3.746;2022-10-17T21:32:36;16.80;99.90
13328;DHT22;6733;51.044;3.746;2022-10-17T21:35:02;16.80;99.90
13328;DHT22;6733;51.044;3.746;2022-10-17T21:37:29;16.80;99.90
13328;DHT22;6733;51.044;3.746;2022-10-17T21:39:55;16.80;99.90
13328;DHT22;6733;51.044;3.746;2022-10-17T21:42:21;16.70;99.90
13328;DHT22;6733;51.044;3.746;2022-10-17T21:44:47;16.70;99.90
13328;DHT22;6733;51.044;3.746;2022-10-17T21:47:16;16.70;99.90
13328;DHT22;6733;51.044;3.746;2022-10-17T21:49:42;16.70;99.90
13328;DHT22;6733;51.044;3.746;2022-10-17T21:52:08;16.70;99.90
13328;DHT22;6733;51.044;3.746;2022-10-17T21:54:34;16.70;99.90
13328;DHT22;6733;51.044;3.746;2022-10-17T21:57:03;16.70;99.90
13328;DHT22;6733;51.044;3.746;2022-10-17T21:59:33;16.60;99.90
13328;DHT22;6733;51.044;3.746;2022-10-17T22:02:00;16.60;99.90
13328;DHT22;6733;51.044;3.746;2022-10-17T22:04:26;16.60;99.90
13328;DHT22;6733;51.044;3.746;2022-10-17T22:06:52;16.60;99.90
13328;DHT22;6733;51.044;3.746;2022-10-17T22:09:24;16.70;99.90
13328;DHT22;6733;51.044;3.746;2022-10-17T22:11:53;16.70;99.90
13328;DHT22;6733;51.044;3.746;2022-10-17T22:14:21;16.60;99.90
13328;DHT22;6733;51.044;3.746;2022-10-17T22:16:48;16.60;99.90
13328;DHT22;6733;51.044;3.746;2022-10-17T22:19:20;16.60;99.90
13328;DHT22;6733;51.044;3.746;2022-10-17T22:21:46;16.60;99.90
13328;DHT22;6733;51.044;3.746;2022-10-17T22:24:15;16.60;99.90
13328;DHT22;6733;51.044;3.746;2022-10-17T22:26:46;16.60;99.90
13328;DHT22;6733;51.044;3.746;2022-10-17T22:29:21;16.60;99.90
13328;DHT22;6733;51.044;3.746;2022-10-17T22:31:47;16.60;99.90
13328;DHT22;6733;51.044;3.746;2022-10-17T22:34:14;16.60;99.90
13328;DHT22;6733;51.044;3.746;2022-10-17T22:36:43;16.60;99.90
13328;DHT22;6733;51.044;3.746;2022-10-17T22:39:10;16.60;99.90
13328;DHT22;6733;51.044;3.746;2022-10-17T22:41:36;16.60;99.90
13328;DHT22;6733;51.044;3.746;2022-10-17T22:44:02;16.50;99.90
13328;DHT22;6733;51.044;3.746;2022-10-17T22:46:33;16.50;99.90
13328;DHT22;6733;51.044;3.746;2022-10-17T22:48:59;16.50;99.90
13328;DHT22;6733;51.044;3.746;2022-10-17T22:51:26;16.40;99.90
13328;DHT22;6733;51.044;3.746;2022-10-17T22:53:52;16.40;99.90
13328;DHT22;6733;51.044;3.746;2022-10-17T22:56:21;16.40;99.90
13328;DHT22;6733;51.044;3.746;2022-10-17T22:58:49;16.40;99.90
13328;DHT22;6733;51.044;3.746;2022-10-17T23:01:18;16.40;99.90
13328;DHT22;6733;51.044;3.746;2022-10-17T23:03:45;16.30;99.90
13328;DHT22;6733;51.044;3.746;2022-10-17T23:06:18;16.30;99.90
13328;DHT22;6733;51.044;3.746;2022-10-17T23:08:45;16.30;99.90
13328;DHT22;6733;51.044;3.746;2022-10-17T23:11:12;16.30;99.90
13328;DHT22;6733;51.044;3.746;2022-10-17T23:13:38;16.30;99.90
13328;DHT22;6733;51.044;3.746;2022-10-17T23:16:11;16.20;99.90
13328;DHT22;6733;51.044;3.746;2022-10-17T23:18:38;16.20;99.90
13328;DHT22;6733;51.044;3.746;2022-10-17T23:21:04;16.20;99.90
13328;DHT22;6733;51.044;3.746;2022-10-17T23:23:31;16.20;99.90
13328;DHT22;6733;51.044;3.746;2022-10-17T23:26:12;16.20;99.90
13328;DHT22;6733;51.044;3.746;2022-10-17T23:28:39;16.20;99.90